createdAt,value
2023-03-25T00:02:10.133Z,99691.28
2023-03-25T00:07:05.412Z,99695.56
2023-03-25T00:09:32.287Z,99696.72
2023-03-25T00:11:59.321Z,99690.28
2023-03-25T00:14:26.534Z,99694.28
2023-03-25T00:16:53.899Z,99699.06
2023-03-25T00:19:22.115Z,99708.19
2023-03-25T00:21:50.935Z,99705.84
2023-03-25T00:24:18.302Z,99682.09
2023-03-25T00:26:46.553Z,99689.69
2023-03-25T00:29:14.408Z,99690.50
2023-03-25T00:31:42.063Z,99702.88
2023-03-25T00:36:44.093Z,99697.59
2023-03-25T00:39:11.525Z,99692.00
2023-03-25T00:41:42.128Z,99678.31
2023-03-25T00:44:09.957Z,99692.34
2023-03-25T00:46:39.181Z,99683.78
2023-03-25T00:49:06.215Z,99680.97
2023-03-25T00:51:34.079Z,99677.31
2023-03-25T00:54:01.178Z,99682.94
2023-03-25T00:56:28.861Z,99688.78
2023-03-25T00:58:56.386Z,99686.78
2023-03-25T01:01:27.649Z,99686.31
2023-03-25T01:03:58.197Z,99697.03
2023-03-25T01:06:29.248Z,99688.59
2023-03-25T01:08:57.746Z,99690.13
2023-03-25T01:16:20.509Z,99694.78
2023-03-25T01:18:47.403Z,99695.59
2023-03-25T01:23:43.673Z,99689.34
2023-03-25T01:26:11.075Z,99695.28
2023-03-25T01:28:40.769Z,99687.69
2023-03-25T01:31:09.144Z,99690.84
2023-03-25T01:33:36.411Z,99690.03
2023-03-25T01:36:03.816Z,99692.03
2023-03-25T01:38:31.174Z,99692.66
2023-03-25T01:40:58.132Z,99695.00
2023-03-25T01:43:24.997Z,99686.47
2023-03-25T01:45:52.311Z,99691.88
2023-03-25T01:48:19.229Z,99690.06
2023-03-25T01:50:48.989Z,99685.28
2023-03-25T01:53:17.404Z,99677.56
2023-03-25T01:55:45.543Z,99681.19
2023-03-25T01:58:14.454Z,99689.47
2023-03-25T02:00:44.464Z,99688.81
2023-03-25T02:03:12.361Z,99677.25
2023-03-25T02:05:46.995Z,99683.38
2023-03-25T02:08:16.459Z,99680.91
2023-03-25T02:10:43.613Z,99685.22
2023-03-25T02:13:11.301Z,99685.53
2023-03-25T02:15:41.618Z,99695.94
2023-03-25T02:18:16.584Z,99684.25
2023-03-25T02:20:44.887Z,99697.44
2023-03-25T02:23:15.557Z,99698.78
2023-03-25T02:25:46.355Z,99703.22
2023-03-25T02:28:16.188Z,99698.78
2023-03-25T02:30:46.677Z,99701.25
2023-03-25T02:33:17.398Z,99691.88
2023-03-25T02:35:48.747Z,99699.31
2023-03-25T02:40:47.373Z,99704.09
2023-03-25T02:43:16.147Z,99693.19
2023-03-25T02:45:46.637Z,99702.75
2023-03-25T02:48:18.906Z,99704.25
2023-03-25T02:50:49.229Z,99700.63
2023-03-25T02:53:21.548Z,99702.94
2023-03-25T02:55:51.792Z,99708.88
2023-03-25T02:58:22.111Z,99702.78
2023-03-25T03:00:51.381Z,99714.66
2023-03-25T03:03:19.566Z,99706.72
2023-03-25T03:05:50.497Z,99707.09
2023-03-25T03:08:20.633Z,99716.97
2023-03-25T03:13:22.902Z,99714.16
2023-03-25T03:15:53.067Z,99715.50
2023-03-25T03:18:27.863Z,99719.47
2023-03-25T03:21:01.520Z,99731.31
2023-03-25T03:23:35.661Z,99724.09
2023-03-25T03:26:09.506Z,99721.47
2023-03-25T03:28:45.725Z,99720.78
2023-03-25T03:33:51.272Z,99740.41
2023-03-25T03:38:52.302Z,99727.53
2023-03-25T03:41:19.961Z,99731.50
2023-03-25T03:43:50.172Z,99726.22
2023-03-25T03:46:21.912Z,99730.34
2023-03-25T03:48:54.702Z,99722.59
2023-03-25T03:51:25.657Z,99733.78
2023-03-25T03:54:00.720Z,99734.78
2023-03-25T03:56:32.580Z,99727.84
2023-03-25T03:59:00.654Z,99737.44
2023-03-25T04:01:35.869Z,99732.97
2023-03-25T04:04:05.161Z,99749.78
2023-03-25T04:06:36.522Z,99744.84
2023-03-25T04:09:09.271Z,99752.22
2023-03-25T04:11:40.786Z,99762.44
2023-03-25T04:14:09.046Z,99748.28
2023-03-25T04:16:37.991Z,99760.81
2023-03-25T04:19:05.946Z,99754.53
2023-03-25T04:21:33.773Z,99753.72
2023-03-25T04:24:02.333Z,99758.00
2023-03-25T04:29:00.794Z,99757.66
2023-03-25T04:31:31.302Z,99763.63
2023-03-25T04:33:58.891Z,99766.56
2023-03-25T04:36:29.003Z,99772.50
2023-03-25T04:38:56.231Z,99777.09
2023-03-25T04:43:50.532Z,99775.94
2023-03-25T04:46:18.645Z,99781.03
2023-03-25T04:48:46.097Z,99781.72
2023-03-25T04:51:14.043Z,99785.34
2023-03-25T04:53:41.262Z,99784.50
2023-03-25T04:56:13.621Z,99782.03
2023-03-25T04:58:41.927Z,99783.38
2023-03-25T05:03:40.596Z,99781.84
2023-03-25T05:06:08.142Z,99788.59
2023-03-25T05:08:35.047Z,99789.75
2023-03-25T05:11:03.261Z,99798.81
2023-03-25T05:13:30.498Z,99796.31
2023-03-25T05:15:57.864Z,99797.50
2023-03-25T05:18:24.848Z,99807.34
2023-03-25T05:23:18.384Z,99798.28
2023-03-25T05:25:47.962Z,99802.28
2023-03-25T05:28:15.202Z,99802.44
2023-03-25T05:30:43.741Z,99807.66
2023-03-25T05:33:15.576Z,99810.16
2023-03-25T05:35:43.052Z,99824.81
2023-03-25T05:38:14.086Z,99815.91
2023-03-25T05:40:41.447Z,99815.25
2023-03-25T05:45:36.716Z,99830.41
2023-03-25T05:48:04.595Z,99823.97
2023-03-25T05:50:32.220Z,99837.28
2023-03-25T05:53:00.235Z,99841.75
2023-03-25T05:55:28.233Z,99832.00
2023-03-25T05:57:55.156Z,99837.81
2023-03-25T06:00:23.628Z,99835.63
2023-03-25T06:02:52.665Z,99847.47
2023-03-25T06:05:24.372Z,99841.88
2023-03-25T06:10:18.677Z,99862.63
2023-03-25T06:12:47.261Z,99864.28
2023-03-25T06:15:16.360Z,99863.13
2023-03-25T06:17:47.442Z,99867.72
2023-03-25T06:20:16.948Z,99878.09
2023-03-25T06:22:45.250Z,99878.41
2023-03-25T06:25:13.768Z,99875.59
2023-03-25T06:30:12.120Z,99882.34
2023-03-25T06:32:39.525Z,99875.44
2023-03-25T06:35:08.193Z,99877.41
2023-03-25T06:37:35.679Z,99880.50
2023-03-25T06:40:03.984Z,99872.47
2023-03-25T06:42:34.370Z,99864.06
2023-03-25T06:45:05.627Z,99858.78
2023-03-25T06:47:35.536Z,99871.63
2023-03-25T06:50:02.741Z,99871.63
2023-03-25T06:52:29.652Z,99866.88
2023-03-25T06:55:00.012Z,99874.44
2023-03-25T06:57:27.910Z,99885.09
2023-03-25T06:59:55.389Z,99892.66
2023-03-25T07:02:23.083Z,99884.63
2023-03-25T07:04:51.121Z,99889.38
2023-03-25T07:07:19.035Z,99896.41
2023-03-25T07:09:46.293Z,99892.19
2023-03-25T07:12:14.451Z,99898.38
2023-03-25T07:14:45.147Z,99899.75
2023-03-25T07:17:16.067Z,99907.63
2023-03-25T07:19:44.471Z,99897.06
2023-03-25T07:22:12.523Z,99891.28
2023-03-25T07:27:13.343Z,99906.28
2023-03-25T07:29:41.512Z,99897.91
2023-03-25T07:32:11.744Z,99906.41
2023-03-25T07:34:40.414Z,99896.88
2023-03-25T07:37:08.551Z,99903.59
2023-03-25T07:39:36.508Z,99894.06
2023-03-25T07:42:04.638Z,99906.41
2023-03-25T07:44:32.444Z,99912.28
2023-03-25T07:49:30.541Z,99927.25
2023-03-25T07:52:00.748Z,99912.94
2023-03-25T07:54:29.757Z,99928.72
2023-03-25T07:56:59.677Z,99938.44
2023-03-25T07:59:29.360Z,99925.09
2023-03-25T08:01:56.649Z,99946.50
2023-03-25T08:04:24.472Z,99943.19
2023-03-25T08:06:56.701Z,99937.59
2023-03-25T08:09:24.735Z,99968.38
2023-03-25T08:11:53.358Z,99952.75
2023-03-25T08:14:21.075Z,99947.16
2023-03-25T08:16:49.068Z,99966.75
2023-03-25T08:19:22.339Z,99979.25
2023-03-25T08:21:49.727Z,99963.72
2023-03-25T08:24:18.575Z,99975.44
2023-03-25T08:26:46.507Z,99989.41
2023-03-25T08:29:14.958Z,99984.47
2023-03-25T08:31:49.843Z,99996.97
2023-03-25T08:34:23.012Z,100002.88
2023-03-25T08:36:57.612Z,100003.22
2023-03-25T08:39:34.263Z,100017.81
2023-03-25T08:42:02.273Z,100000.72
2023-03-25T08:44:29.129Z,100008.47
2023-03-25T08:46:55.927Z,100011.59
2023-03-25T08:49:26.418Z,100022.47
2023-03-25T08:52:10.148Z,100031.38
2023-03-25T08:54:37.695Z,100028.03
2023-03-25T08:57:05.575Z,100030.84
2023-03-25T08:59:36.666Z,100033.16
2023-03-25T09:02:05.909Z,100048.25
2023-03-25T09:04:32.786Z,100049.41
2023-03-25T09:07:10.818Z,100041.84
2023-03-25T09:09:39.944Z,100055.00
2023-03-25T09:12:07.886Z,100046.59
2023-03-25T09:14:35.973Z,100061.94
2023-03-25T09:17:04.742Z,100053.03
2023-03-25T09:19:36.565Z,100064.22
2023-03-25T09:22:05.223Z,100076.22
2023-03-25T09:24:35.097Z,100065.56
2023-03-25T09:27:03.979Z,100061.75
2023-03-25T09:29:34.889Z,100084.13
2023-03-25T09:32:04.388Z,100072.59
2023-03-25T09:34:33.246Z,100081.44
2023-03-25T09:37:08.105Z,100075.22
2023-03-25T09:39:34.973Z,100091.69
2023-03-25T09:42:05.189Z,100083.06
2023-03-25T09:44:40.116Z,100089.19
2023-03-25T09:47:17.156Z,100093.66
2023-03-25T09:49:58.855Z,100090.31
2023-03-25T09:52:31.953Z,100101.50
2023-03-25T09:55:03.279Z,100113.53
2023-03-25T09:57:36.324Z,100116.03
2023-03-25T10:00:10.052Z,100124.06
2023-03-25T10:02:46.122Z,100122.97
2023-03-25T10:05:18.517Z,100131.19
2023-03-25T10:07:47.616Z,100123.50
2023-03-25T10:10:23.084Z,100151.38
2023-03-25T10:13:02.734Z,100137.28
2023-03-25T10:15:47.985Z,100143.78
2023-03-25T10:18:15.095Z,100147.81
2023-03-25T10:20:54.058Z,100146.88
2023-03-25T10:23:30.656Z,100156.81
2023-03-25T10:26:10.590Z,100157.53
2023-03-25T10:28:43.998Z,100162.19
2023-03-25T10:31:19.180Z,100172.97
2023-03-25T10:33:53.298Z,100189.28
2023-03-25T10:39:48.813Z,100177.88
2023-03-25T10:42:14.849Z,100183.88
2023-03-25T10:44:46.747Z,100185.41
2023-03-25T10:47:17.378Z,100200.09
2023-03-25T10:49:46.292Z,100196.06
2023-03-25T10:52:13.581Z,100205.16
2023-03-25T10:54:43.067Z,100203.88
2023-03-25T10:57:20.046Z,100209.03
2023-03-25T10:59:55.569Z,100201.84
2023-03-25T11:02:27.691Z,100214.59
2023-03-25T11:05:00.435Z,100216.94
2023-03-25T11:07:29.660Z,100232.50
2023-03-25T11:10:15.598Z,100223.97
2023-03-25T11:12:46.097Z,100232.44
2023-03-25T11:20:51.644Z,100246.72
2023-03-25T11:23:19.904Z,100251.88
2023-03-25T11:25:47.074Z,100250.59
2023-03-25T11:28:17.151Z,100245.66
2023-03-25T11:30:47.295Z,100246.88
2023-03-25T11:33:15.904Z,100261.59
2023-03-25T11:35:45.713Z,100267.03
2023-03-25T11:38:15.978Z,100268.56
2023-03-25T11:40:50.941Z,100260.88
2023-03-25T11:43:21.313Z,100260.38
2023-03-25T11:45:50.194Z,100266.69
2023-03-25T11:48:19.765Z,100252.50
2023-03-25T11:50:53.065Z,100266.38
2023-03-25T11:53:21.638Z,100257.00
2023-03-25T11:55:51.976Z,100259.66
2023-03-25T11:58:21.740Z,100264.28
2023-03-25T12:00:49.857Z,100265.28
2023-03-25T12:03:20.616Z,100263.78
2023-03-25T12:05:51.297Z,100262.81
2023-03-25T12:08:20.830Z,100269.78
2023-03-25T12:10:57.487Z,100271.59
2023-03-25T12:13:31.055Z,100270.09
2023-03-25T12:16:03.389Z,100273.06
2023-03-25T12:18:30.742Z,100278.88
2023-03-25T12:21:00.687Z,100272.91
2023-03-25T12:23:30.850Z,100275.41
2023-03-25T12:26:01.256Z,100279.22
2023-03-25T12:28:31.587Z,100271.94
2023-03-25T12:31:01.840Z,100270.78
2023-03-25T12:33:37.129Z,100270.47
2023-03-25T12:36:05.587Z,100285.34
2023-03-25T12:38:36.791Z,100294.25
2023-03-25T12:41:08.038Z,100286.66
2023-03-25T12:43:38.072Z,100278.22
2023-03-25T12:46:08.512Z,100277.41
2023-03-25T12:48:36.117Z,100280.91
2023-03-25T12:51:06.330Z,100277.91
2023-03-25T12:53:36.811Z,100264.56
2023-03-25T12:56:04.054Z,100275.63
2023-03-25T12:58:31.453Z,100275.81
2023-03-25T13:00:58.801Z,100286.91
2023-03-25T13:03:28.933Z,100270.50
2023-03-25T13:06:01.011Z,100279.44
2023-03-25T13:08:32.355Z,100286.06
2023-03-25T13:11:03.896Z,100275.31
2023-03-25T13:13:32.110Z,100281.91
2023-03-25T13:16:02.105Z,100293.97
2023-03-25T13:18:34.326Z,100283.41
2023-03-25T13:21:04.831Z,100290.19
2023-03-25T13:23:34.890Z,100281.09
2023-03-25T13:26:06.845Z,100296.97
2023-03-25T13:28:38.772Z,100302.75
2023-03-25T13:31:08.638Z,100320.09
2023-03-25T13:33:38.450Z,100302.59
2023-03-25T13:36:06.927Z,100307.72
2023-03-25T13:38:37.451Z,100308.84
2023-03-25T13:41:07.461Z,100313.00
2023-03-25T13:43:39.424Z,100304.25
2023-03-25T13:46:09.541Z,100310.34
2023-03-25T13:48:39.269Z,100307.22
2023-03-25T13:51:07.857Z,100311.16
2023-03-25T13:53:38.444Z,100306.19
2023-03-25T13:56:07.105Z,100318.28
2023-03-25T13:58:34.454Z,100307.34
2023-03-25T14:01:04.591Z,100303.38
2023-03-25T14:03:34.650Z,100298.91
2023-03-25T14:06:04.919Z,100292.97
2023-03-25T14:08:34.986Z,100287.19
2023-03-25T14:11:03.321Z,100291.16
2023-03-25T14:13:33.050Z,100277.09
2023-03-25T14:16:04.313Z,100296.94
2023-03-25T14:18:32.458Z,100298.78
2023-03-25T14:21:14.075Z,100318.78
2023-03-25T14:23:42.425Z,100317.31
2023-03-25T14:26:11.251Z,100325.75
2023-03-25T14:28:43.445Z,100321.13
2023-03-25T14:31:13.655Z,100327.91
2023-03-25T14:33:43.950Z,100332.53
2023-03-25T14:36:11.001Z,100322.44
2023-03-25T14:38:40.971Z,100326.25
2023-03-25T14:41:08.337Z,100315.00
2023-03-25T14:43:38.651Z,100317.28
2023-03-25T14:46:10.664Z,100316.00
2023-03-25T14:48:46.101Z,100330.34
2023-03-25T14:51:16.347Z,100314.16
2023-03-25T14:53:50.539Z,100324.56
2023-03-25T14:56:19.903Z,100332.19
2023-03-25T14:58:51.366Z,100326.72
2023-03-25T15:01:19.884Z,100321.09
2023-03-25T15:03:48.767Z,100329.88
2023-03-25T15:06:17.405Z,100332.19
2023-03-25T15:08:47.388Z,100325.41
2023-03-25T15:11:17.410Z,100334.97
2023-03-25T15:13:48.008Z,100317.97
2023-03-25T15:16:17.967Z,100334.00
2023-03-25T15:18:47.526Z,100334.63
2023-03-25T15:21:14.989Z,100331.16
2023-03-25T15:23:45.886Z,100331.28
2023-03-25T15:26:15.045Z,100338.06
2023-03-25T15:28:42.912Z,100327.63
2023-03-25T15:31:16.661Z,100336.88
2023-03-25T15:33:47.141Z,100352.75
2023-03-25T15:36:17.240Z,100343.78
2023-03-25T15:38:50.149Z,100351.72
2023-03-25T15:41:27.713Z,100378.31
2023-03-25T15:44:00.944Z,100371.34
2023-03-25T15:46:31.895Z,100368.38
2023-03-25T15:49:02.011Z,100363.88
2023-03-25T15:51:30.054Z,100370.69
2023-03-25T15:54:05.609Z,100382.38
2023-03-25T15:56:36.200Z,100365.84
2023-03-25T15:59:07.406Z,100378.03
2023-03-25T16:01:35.728Z,100371.09
2023-03-25T16:04:03.690Z,100377.03
2023-03-25T16:06:31.865Z,100370.41
2023-03-25T16:08:59.866Z,100385.59
2023-03-25T16:11:29.517Z,100385.94
2023-03-25T16:13:59.598Z,100390.41
2023-03-25T16:16:28.055Z,100394.66
2023-03-25T16:18:56.395Z,100395.63
2023-03-25T16:21:23.586Z,100385.38
2023-03-25T16:23:53.623Z,100402.50
2023-03-25T16:26:23.834Z,100396.41
2023-03-25T16:28:50.890Z,100393.09
2023-03-25T16:31:20.994Z,100401.00
2023-03-25T16:33:50.259Z,100398.38
2023-03-25T16:36:18.132Z,100404.66
2023-03-25T16:38:45.327Z,100404.44
2023-03-25T16:41:14.098Z,100404.25
2023-03-25T16:43:41.679Z,100395.34
2023-03-25T16:46:10.208Z,100405.19
2023-03-25T16:48:40.313Z,100406.31
2023-03-25T16:51:10.538Z,100406.31
2023-03-25T16:53:40.352Z,100392.13
2023-03-25T16:56:10.980Z,100394.09
2023-03-25T16:58:49.191Z,100400.34
2023-03-25T17:01:16.801Z,100400.66
2023-03-25T17:03:46.408Z,100401.31
2023-03-25T17:06:14.893Z,100401.31
2023-03-25T17:08:41.943Z,100398.81
2023-03-25T17:11:09.447Z,100389.06
2023-03-25T17:13:39.460Z,100388.25
2023-03-25T17:16:08.223Z,100392.53
2023-03-25T17:18:36.977Z,100388.06
2023-03-25T17:21:10.456Z,100386.41
2023-03-25T17:23:39.389Z,100381.75
2023-03-25T17:26:08.258Z,100379.25
2023-03-25T17:28:38.564Z,100385.19
2023-03-25T17:31:09.808Z,100373.75
2023-03-25T17:33:39.545Z,100376.91
2023-03-25T17:36:10.265Z,100379.72
2023-03-25T17:38:42.430Z,100374.41
2023-03-25T17:41:10.928Z,100375.56
2023-03-25T17:43:41.820Z,100377.53
2023-03-25T17:46:10.169Z,100364.97
2023-03-25T17:48:37.150Z,100369.25
2023-03-25T17:51:04.380Z,100370.72
2023-03-25T17:53:31.867Z,100368.22
2023-03-25T17:55:59.669Z,100371.34
2023-03-25T17:58:26.904Z,100368.03
2023-03-25T18:00:56.099Z,100365.03
2023-03-25T18:03:24.167Z,100365.03
2023-03-25T18:05:54.160Z,100369.81
2023-03-25T18:08:23.053Z,100373.75
2023-03-25T18:10:51.078Z,100370.94
2023-03-25T18:13:18.753Z,100364.03
2023-03-25T18:15:45.917Z,100372.44
2023-03-25T18:18:16.176Z,100364.66
2023-03-25T18:20:44.048Z,100369.44
2023-03-25T18:23:11.218Z,100371.72
2023-03-25T18:25:38.277Z,100376.50
2023-03-25T18:28:05.504Z,100370.38
2023-03-25T18:30:42.409Z,100376.81
2023-03-25T18:33:10.227Z,100368.41
2023-03-25T18:35:37.485Z,100376.50
2023-03-25T18:38:04.887Z,100376.31
2023-03-25T18:40:34.738Z,100375.47
2023-03-25T18:43:01.882Z,100381.06
2023-03-25T18:45:28.947Z,100383.38
2023-03-25T18:47:56.887Z,100390.13
2023-03-25T18:50:27.081Z,100396.03
2023-03-25T18:52:54.096Z,100396.34
2023-03-25T18:55:21.319Z,100396.66
2023-03-25T18:57:48.492Z,100395.00
2023-03-25T19:00:19.710Z,100396.13
2023-03-25T19:02:49.542Z,100399.28
2023-03-25T19:05:17.993Z,100399.28
2023-03-25T19:07:45.437Z,100407.16
2023-03-25T19:10:15.714Z,100398.22
2023-03-25T19:12:44.672Z,100398.53
2023-03-25T19:15:12.515Z,100401.31
2023-03-25T19:17:39.770Z,100397.69
2023-03-25T19:20:08.063Z,100398.00
2023-03-25T19:22:37.313Z,100404.72
2023-03-25T19:25:04.514Z,100409.84
2023-03-25T19:27:31.696Z,100414.91
2023-03-25T19:29:58.739Z,100409.66
2023-03-25T19:32:26.943Z,100410.78
2023-03-25T19:34:55.239Z,100409.94
2023-03-25T19:37:23.127Z,100408.28
2023-03-25T19:39:50.418Z,100405.81
2023-03-25T19:42:17.509Z,100404.16
2023-03-25T19:44:46.113Z,100406.13
2023-03-25T19:47:14.156Z,100393.25
2023-03-25T19:49:41.355Z,100401.97
2023-03-25T19:52:10.569Z,100394.38
2023-03-25T19:54:37.762Z,100400.00
2023-03-25T19:57:04.767Z,100386.31
2023-03-25T19:59:32.487Z,100375.41
2023-03-25T20:02:01.403Z,100375.41
2023-03-25T20:04:28.804Z,100381.31
2023-03-25T20:06:55.806Z,100377.19
2023-03-25T20:09:22.757Z,100376.34
2023-03-25T20:11:51.223Z,100375.53
2023-03-25T20:14:18.456Z,100380.28
2023-03-25T20:16:45.715Z,100372.22
2023-03-25T20:19:12.989Z,100374.50
2023-03-25T20:21:40.013Z,100376.16
2023-03-25T20:24:07.573Z,100382.06
2023-03-25T20:26:34.645Z,100368.91
2023-03-25T20:29:01.746Z,100366.09
2023-03-25T20:31:28.783Z,100366.09
2023-03-25T20:33:56.358Z,100362.47
2023-03-25T20:36:23.390Z,100366.41
2023-03-25T20:38:57.223Z,100365.56
2023-03-25T20:41:26.001Z,100359.16
2023-03-25T20:43:53.325Z,100365.56
2023-03-25T20:46:24.189Z,100362.28
2023-03-25T20:48:51.243Z,100367.88
2023-03-25T20:51:18.745Z,100360.59
2023-03-25T20:53:46.385Z,100361.75
2023-03-25T20:56:13.495Z,100358.09
2023-03-25T20:58:40.666Z,100357.31
2023-03-25T21:01:08.253Z,100348.91
2023-03-25T21:03:35.389Z,100350.34
2023-03-25T21:06:10.312Z,100348.06
2023-03-25T21:08:41.606Z,100352.84
2023-03-25T21:11:08.704Z,100348.38
2023-03-25T21:13:36.016Z,100342.59
2023-03-25T21:16:03.199Z,100348.47
2023-03-25T21:18:30.583Z,100333.34
2023-03-25T21:20:58.853Z,100335.63
2023-03-25T21:23:28.662Z,100340.38
2023-03-25T21:25:57.603Z,100335.63
2023-03-25T21:28:24.780Z,100334.28
2023-03-25T21:30:59.682Z,100328.69
2023-03-25T21:33:26.742Z,100331.19
2023-03-25T21:35:54.423Z,100326.72
2023-03-25T21:38:28.674Z,100328.38
2023-03-25T21:40:57.357Z,100326.72
2023-03-25T21:43:25.448Z,100331.50
2023-03-25T21:45:52.716Z,100320.59
2023-03-25T21:48:21.774Z,100311.69
2023-03-25T21:50:52.182Z,100310.53
2023-03-25T21:53:20.479Z,100312.53
2023-03-25T21:55:49.727Z,100307.72
2023-03-25T21:58:20.006Z,100303.50
2023-03-25T22:00:46.936Z,100314.69
2023-03-25T22:03:13.947Z,100307.13
2023-03-25T22:05:41.456Z,100306.59
2023-03-25T22:08:08.872Z,100306.09
2023-03-25T22:10:35.936Z,100297.16
2023-03-25T22:13:02.872Z,100291.56
2023-03-25T22:15:30.190Z,100284.31
2023-03-25T22:17:57.295Z,100276.75
2023-03-25T22:20:26.730Z,100275.41
2023-03-25T22:22:54.254Z,100268.69
2023-03-25T22:25:23.441Z,100262.25
2023-03-25T22:27:50.702Z,100262.25
2023-03-25T22:30:18.088Z,100260.78
2023-03-25T22:32:45.072Z,100256.22
2023-03-25T22:35:14.525Z,100257.44
2023-03-25T22:37:42.180Z,100243.31
2023-03-25T22:40:10.976Z,100246.22
2023-03-25T22:42:38.246Z,100238.19
2023-03-25T22:45:05.808Z,100236.94
2023-03-25T22:47:32.870Z,100220.00
2023-03-25T22:49:59.839Z,100219.84
2023-03-25T22:52:26.809Z,100213.31
2023-03-25T22:54:56.585Z,100216.00
2023-03-25T22:57:23.629Z,100219.50
2023-03-25T22:59:51.589Z,100212.63
2023-03-25T23:02:18.873Z,100208.53
2023-03-25T23:04:46.534Z,100201.66
2023-03-25T23:07:13.517Z,100193.09
2023-03-25T23:09:41.889Z,100197.44
2023-03-25T23:12:10.893Z,100203.69
2023-03-25T23:14:39.376Z,100197.66
2023-03-25T23:17:06.635Z,100186.28
2023-03-25T23:19:33.805Z,100183.00
2023-03-25T23:22:01.112Z,100166.84
2023-03-25T23:24:28.350Z,100177.09
2023-03-25T23:26:57.593Z,100156.19
2023-03-25T23:29:24.654Z,100162.50
2023-03-25T23:31:53.862Z,100160.34
2023-03-25T23:34:23.335Z,100163.84
2023-03-25T23:36:50.506Z,100156.09
2023-03-25T23:39:19.891Z,100152.31
2023-03-25T23:41:50.004Z,100139.78
2023-03-25T23:44:17.160Z,100133.19
2023-03-25T23:46:44.340Z,100134.66
2023-03-25T23:49:11.652Z,100136.47
2023-03-25T23:51:40.451Z,100131.84
2023-03-25T23:54:08.833Z,100123.59
2023-03-25T23:56:36.649Z,100114.19
2023-03-25T23:59:05.899Z,100111.53
